Time;durP1;ratioP1;P1;durP2;ratioP2;P2;SDS_P1;SDS_P2;PMS_P1;PMS_P2;Temp;Humidity;BMP_temperature;BMP_pressure;BME280_temperature;BME280_humidity;BME280_pressure;Samples;Min_cycle;Max_cycle;Signal;HPM_P1;HPM_P2
2022/06/08 00:00:37;;;;;;;13.07;6.30;;;;;;;9.60;100.00;101034.22;5036800;28;20491;-77
2022/06/08 00:03:16;;;;;;;9.43;6.28;;;;;;;9.61;100.00;101030.69;5040047;28;20037;-76
2022/06/08 00:05:42;;;;;;;7.93;6.13;;;;;;;9.62;100.00;101027.09;5040910;28;20044;-77
2022/06/08 00:08:07;;;;;;;9.90;6.15;;;;;;;9.60;100.00;101026.28;5041866;28;20768;-76
2022/06/08 00:10:33;;;;;;;9.30;6.10;;;;;;;9.59;100.00;101029.00;5040429;28;20941;-76
2022/06/08 00:12:58;;;;;;;10.82;5.60;;;;;;;9.56;100.00;101011.47;5041381;28;20506;-76
2022/06/08 00:15:26;;;;;;;8.50;5.47;;;;;;;9.57;100.00;101012.31;5041804;28;20029;-76
2022/06/08 00:17:51;;;;;;;9.68;6.07;;;;;;;9.54;100.00;101008.03;5040476;28;20029;-76
2022/06/08 00:20:17;;;;;;;10.85;6.18;;;;;;;9.53;100.00;101008.94;5038171;28;20040;-76
2022/06/08 00:22:42;;;;;;;10.73;5.80;;;;;;;9.51;100.00;100997.56;5042260;28;20126;-76
2022/06/08 00:25:09;;;;;;;11.35;6.45;;;;;;;9.48;100.00;101000.34;5053324;28;20048;-77
2022/06/08 00:27:35;;;;;;;10.63;5.95;;;;;;;9.45;100.00;100998.69;5064433;28;20033;-77
2022/06/08 00:30:01;;;;;;;13.00;6.68;;;;;;;9.43;100.00;100984.63;5056405;28;20047;-77
2022/06/08 00:32:26;;;;;;;10.85;6.47;;;;;;;9.42;100.00;100988.22;5041788;28;20483;-77
2022/06/08 00:34:52;;;;;;;10.57;6.78;;;;;;;9.41;100.00;100980.38;5042092;28;20063;-77
2022/06/08 00:37:19;;;;;;;10.77;6.72;;;;;;;9.40;100.00;100981.25;5020586;28;20039;-77
2022/06/08 00:39:45;;;;;;;8.48;5.88;;;;;;;9.41;100.00;100983.00;5041736;28;20271;-77
2022/06/08 00:42:13;;;;;;;11.25;6.60;;;;;;;9.40;100.00;100981.25;5028570;28;20039;-77
2022/06/08 00:44:55;;;;;;;9.27;6.68;;;;;;;9.41;100.00;100980.38;5041612;28;20629;-77
2022/06/08 00:47:26;;;;;;;12.48;7.28;;;;;;;9.38;100.00;100976.91;5015231;28;20046;-77
2022/06/08 00:50:01;;;;;;;10.40;6.60;;;;;;;9.37;100.00;100969.91;5032156;28;20035;-76
2022/06/08 00:52:28;;;;;;;9.63;6.18;;;;;;;9.38;100.00;100966.31;5029649;28;20500;-76
2022/06/08 00:54:57;;;;;;;9.88;6.05;;;;;;;9.39;100.00;100967.19;5036407;28;20568;-77
2022/06/08 00:57:29;;;;;;;9.18;5.85;;;;;;;9.36;100.00;100962.00;5040620;28;20045;-76
2022/06/08 00:59:59;;;;;;;9.32;5.45;;;;;;;9.34;100.00;100963.88;5039986;28;20094;-77
2022/06/08 01:02:25;;;;;;;8.20;5.60;;;;;;;9.32;100.00;100969.19;5039193;28;20055;-77
2022/06/08 01:05:11;;;;;;;11.68;5.72;;;;;;;9.31;100.00;100959.56;5041555;28;20029;-77
2022/06/08 01:07:37;;;;;;;8.13;5.72;;;;;;;9.30;100.00;100963.13;5041559;28;20471;-77
2022/06/08 01:10:03;;;;;;;10.40;6.18;;;;;;;9.30;100.00;100963.13;5040092;28;21358;-76
2022/06/08 01:12:28;;;;;;;10.77;6.05;;;;;;;9.31;100.00;100954.28;5040228;28;20044;-77
2022/06/08 01:14:54;;;;;;;9.45;5.78;;;;;;;9.32;100.00;100953.34;5041764;28;20387;-77
2022/06/08 01:17:20;;;;;;;9.82;6.07;;;;;;;9.32;100.00;100953.34;5039702;28;20041;-77
2022/06/08 01:19:47;;;;;;;7.93;5.43;;;;;;;9.32;100.00;100950.72;5039975;28;20051;-76
2022/06/08 01:22:16;;;;;;;9.35;6.00;;;;;;;9.32;100.00;100952.50;5040393;28;20098;-76
2022/06/08 01:24:44;;;;;;;8.77;5.60;;;;;;;9.31;100.00;100946.34;5057440;28;20475;-76
2022/06/08 01:27:32;;;;;;;11.00;5.88;;;;;;;9.32;100.00;100941.94;5038744;28;20394;-76
2022/06/08 01:30:21;;;;;;;9.88;6.25;;;;;;;9.33;100.00;100935.72;5042303;28;20052;-76
2022/06/08 01:32:56;;;;;;;9.70;6.20;;;;;;;9.36;100.00;100936.47;5042261;28;20423;-77
2022/06/08 01:35:59;;;;;;;11.25;6.45;;;;;;;9.38;100.00;100931.97;5016220;28;20029;-76
2022/06/08 01:38:27;;;;;;;11.50;6.43;;;;;;;9.38;100.00;100918.75;5037859;28;20039;-76
2022/06/08 01:41:17;;;;;;;14.10;7.15;;;;;;;9.38;100.00;100917.91;5044083;28;20051;-76
2022/06/08 01:44:11;;;;;;;10.18;7.10;;;;;;;9.38;100.00;100917.91;5043927;28;21876;-76
2022/06/08 01:46:57;;;;;;;;;;;;;;;9.37;100.00;100919.69;5032988;28;20041;-76
2022/06/08 01:49:29;;;;;;;11.55;6.93;;;;;;;9.37;100.00;100911.75;5041153;28;19932;-76
2022/06/08 01:52:30;;;;;;;13.38;8.25;;;;;;;9.35;100.00;100904.81;5030112;28;20029;-76
2022/06/08 01:55:05;;;;;;;16.52;8.43;;;;;;;9.35;100.00;100903.03;5014720;28;20128;-76
2022/06/08 01:58:20;;;;;;;13.57;7.80;;;;;;;9.36;100.00;100909.16;5043140;28;20526;-76
2022/06/08 02:00:55;;;;;;;15.23;7.07;;;;;;;9.36;100.00;100898.59;5005723;28;20576;-76
2022/06/08 02:03:30;;;;;;;12.05;7.20;;;;;;;9.36;100.00;100898.59;5033123;28;20048;-77
2022/06/08 02:06:11;;;;;;;12.23;7.70;;;;;;;9.36;100.00;100890.69;5040787;28;20587;-79
2022/06/08 02:08:56;;;;;;;13.05;7.18;;;;;;;9.38;100.00;100886.22;5019648;28;20158;-77
2022/06/08 02:11:37;;;;;;;13.45;8.50;;;;;;;9.39;100.00;100882.66;5028531;28;20032;-77
2022/06/08 02:14:23;;;;;;;12.85;7.28;;;;;;;9.37;100.00;100880.06;5040065;28;20043;-76
2022/06/08 02:16:54;;;;;;;11.48;7.03;;;;;;;9.38;100.00;100876.47;5026926;28;20133;-76
2022/06/08 02:19:36;;;;;;;16.55;8.10;;;;;;;9.36;100.00;100875.69;5023144;28;20029;-76
2022/06/08 02:22:16;;;;;;;11.73;7.28;;;;;;;9.36;100.00;100873.06;5034391;28;20039;-76
2022/06/08 02:24:47;;;;;;;12.18;7.53;;;;;;;9.36;100.00;100867.78;5039546;28;20463;-76
2022/06/08 02:27:16;;;;;;;13.00;7.75;;;;;;;9.36;100.00;100872.19;5033595;28;20041;-77
2022/06/08 02:29:56;;;;;;;14.48;7.80;;;;;;;9.36;100.00;100866.91;5038676;28;20047;-76
2022/06/08 02:35:19;;;;;;;13.07;7.78;;;;;;;9.38;100.00;100859.78;5040240;28;21493;-76
2022/06/08 02:37:48;;;;;;;14.48;7.75;;;;;;;9.38;100.00;100854.50;5030127;28;20124;-77
2022/06/08 02:40:17;;;;;;;14.65;8.25;;;;;;;9.40;100.00;100859.69;5013890;28;20748;-77
2022/06/08 02:42:50;;;;;;;13.40;7.85;;;;;;;9.41;100.00;100850.88;5031840;28;20063;-77
2022/06/08 02:45:16;;;;;;;13.32;7.57;;;;;;;9.41;100.00;100846.44;5039745;28;20112;-77
2022/06/08 02:47:43;;;;;;;12.32;7.45;;;;;;;9.41;100.00;100843.78;5019688;28;20037;-77
2022/06/08 02:50:16;;;;;;;14.13;7.38;;;;;;;9.41;100.00;100838.50;5041342;28;20554;-77
2022/06/08 02:52:46;;;;;;;17.13;7.65;;;;;;;9.41;100.00;100835.03;5041740;28;20033;-76
2022/06/08 02:55:19;;;;;;;13.57;6.97;;;;;;;9.41;100.00;100830.59;5037639;28;20079;-76
2022/06/08 02:57:59;;;;;;;14.43;7.60;;;;;;;9.42;100.00;100829.66;5021253;28;20364;-76
2022/06/08 03:00:31;;;;;;;13.55;7.35;;;;;;;9.45;100.00;100836.59;5014239;28;20114;-77
2022/06/08 03:03:04;;;;;;;12.82;7.15;;;;;;;9.43;100.00;100830.53;5033801;28;22233;-77
2022/06/08 03:05:30;;;;;;;12.18;7.75;;;;;;;9.44;100.00;100821.69;5044838;28;20028;-75
2022/06/08 03:08:05;;;;;;;13.45;7.63;;;;;;;9.43;100.00;100819.97;5044982;28;20085;-77
2022/06/08 03:10:34;;;;;;;13.68;8.50;;;;;;;9.43;100.00;100820.81;5038380;28;20564;-76
2022/06/08 03:13:05;;;;;;;16.45;8.25;;;;;;;9.45;100.00;100815.47;5031383;28;20036;-78
2022/06/08 03:15:32;;;;;;;15.32;8.27;;;;;;;9.46;100.00;100814.53;5041150;28;20426;-77
2022/06/08 03:17:57;;;;;;;12.45;7.30;;;;;;;9.47;100.00;100817.13;5043751;28;20028;-77
2022/06/08 03:20:24;;;;;;;21.42;8.80;;;;;;;9.48;100.00;100816.19;5028656;28;20121;-77
2022/06/08 03:22:50;;;;;;;13.20;7.60;;;;;;;9.50;100.00;100816.13;5046343;28;20102;-77
2022/06/08 03:25:15;;;;;;;14.88;8.30;;;;;;;9.52;100.00;100814.28;5038178;28;20649;-77
2022/06/08 03:27:43;;;;;;;15.43;8.57;;;;;;;9.53;100.00;100810.72;5040751;28;20033;-77
2022/06/08 03:30:09;;;;;;;14.02;8.00;;;;;;;9.54;100.00;100796.59;5024775;28;20502;-77
2022/06/08 03:32:35;;;;;;;13.35;8.05;;;;;;;9.57;100.00;100796.47;5043492;28;20072;-77
2022/06/08 03:35:01;;;;;;;14.18;8.43;;;;;;;9.59;100.00;100799.88;5045098;28;20028;-77
2022/06/08 03:37:26;;;;;;;17.15;8.27;;;;;;;9.63;100.00;100792.69;5044980;28;20083;-76
2022/06/08 03:39:52;;;;;;;14.70;8.43;;;;;;;9.66;100.00;100787.28;5043326;28;20029;-77
2022/06/08 03:42:18;;;;;;;18.58;8.98;;;;;;;9.69;100.00;100789.78;5045084;28;20040;-76
2022/06/08 03:44:43;;;;;;;14.32;8.55;;;;;;;9.71;100.00;100795.88;5041278;28;20029;-76
2022/06/08 03:47:12;;;;;;;16.80;8.77;;;;;;;9.74;100.00;100786.94;5043847;28;20090;-76
2022/06/08 03:49:38;;;;;;;16.92;8.48;;;;;;;9.77;100.00;100781.53;5031724;28;20085;-77
2022/06/08 03:52:07;;;;;;;16.15;8.77;;;;;;;9.81;100.00;100783.09;5044530;28;20418;-77
2022/06/08 03:54:38;;;;;;;15.90;8.73;;;;;;;9.88;100.00;100783.72;5038694;28;20041;-78
2022/06/08 03:57:05;;;;;;;14.82;9.27;;;;;;;9.96;100.00;100788.69;5044211;28;20379;-76
2022/06/08 03:59:32;;;;;;;15.90;9.48;;;;;;;10.01;100.00;100784.03;5051047;28;20056;-77
2022/06/08 04:01:58;;;;;;;18.83;9.75;;;;;;;10.11;100.00;100782.69;5046123;28;20049;-78
2022/06/08 04:04:23;;;;;;;21.70;10.52;;;;;;;10.18;100.00;100786.78;5059895;28;20029;-76
2022/06/08 04:06:49;;;;;;;16.25;9.85;;;;;;;10.26;100.00;100788.22;5052437;28;20143;-76
2022/06/08 04:09:15;;;;;;;19.40;9.80;;;;;;;10.32;100.00;100791.47;5058507;28;20028;-77
2022/06/08 04:11:41;;;;;;;20.02;10.65;;;;;;;10.40;100.00;100795.56;5052672;28;20037;-77
2022/06/08 04:14:06;;;;;;;18.30;10.02;;;;;;;10.45;100.00;100788.28;5042649;28;20173;-77
2022/06/08 04:16:32;;;;;;;20.58;10.82;;;;;;;10.54;100.00;100779.94;5038961;28;20028;-77
2022/06/08 04:18:58;;;;;;;21.50;10.60;;;;;;;10.61;100.00;100785.78;5040361;28;20071;-77
2022/06/08 04:21:23;;;;;;;21.23;10.75;;;;;;;10.70;100.00;100782.72;5040860;28;20044;-77
2022/06/08 04:23:49;;;;;;;22.40;11.77;;;;;;;10.75;100.00;100778.97;4999525;28;20044;-77
2022/06/08 04:26:16;;;;;;;21.17;11.25;;;;;;;10.83;100.00;100776.81;5041070;28;20033;-77
2022/06/08 04:28:42;;;;;;;24.58;11.88;;;;;;;10.90;100.00;100778.25;5042738;28;20037;-77
2022/06/08 04:31:08;;;;;;;26.02;11.98;;;;;;;10.97;100.00;100786.78;5031292;28;20756;-76
2022/06/08 04:33:34;;;;;;;24.17;12.57;;;;;;;11.04;100.00;100780.25;5042734;28;20123;-76
2022/06/08 04:35:59;;;;;;;23.67;12.05;;;;;;;11.13;100.00;100779.78;5032093;28;20040;-77
2022/06/08 04:38:25;;;;;;;24.38;11.43;;;;;;;11.21;100.00;100786.50;5044314;28;20054;-76
2022/06/08 04:40:51;;;;;;;22.95;12.02;;;;;;;11.31;100.00;100781.59;5043995;28;20090;-76
2022/06/08 04:43:17;;;;;;;24.45;12.27;;;;;;;11.38;100.00;100778.59;5025296;28;20127;-76
2022/06/08 04:45:43;;;;;;;24.40;11.80;;;;;;;11.45;100.00;100784.44;5044335;28;20021;-76
2022/06/08 04:48:09;;;;;;;24.80;12.82;;;;;;;11.54;100.00;100786.63;5040745;28;20044;-76
2022/06/08 04:50:34;;;;;;;27.60;12.02;;;;;;;11.61;100.00;100781.84;5040637;28;20117;-77
2022/06/08 04:53:01;;;;;;;23.38;12.13;;;;;;;11.69;100.00;100781.47;5042846;28;20052;-77
2022/06/08 04:55:27;;;;;;;25.50;12.43;;;;;;;11.75;100.00;100781.16;5049743;28;20546;-77
2022/06/08 04:57:53;;;;;;;21.67;11.40;;;;;;;11.81;100.00;100791.47;5039424;28;20039;-77
2022/06/08 05:00:22;;;;;;;23.67;11.93;;;;;;;11.87;100.00;100787.63;5021905;28;20118;-77
2022/06/08 05:02:49;;;;;;;23.27;10.77;;;;;;;11.91;100.00;100786.53;5054292;28;20048;-75
2022/06/08 05:05:17;;;;;;;27.45;12.55;;;;;;;11.95;100.00;100781.94;5043002;28;20029;-77
2022/06/08 05:07:43;;;;;;;22.58;11.52;;;;;;;11.96;100.00;100775.69;5044274;28;20040;-77
2022/06/08 05:10:10;;;;;;;19.75;11.00;;;;;;;11.99;100.00;100767.53;5043964;28;20036;-77
2022/06/08 05:12:36;;;;;;;21.25;10.80;;;;;;;12.04;100.00;100765.53;5038567;28;20044;-78
2022/06/08 05:15:06;;;;;;;18.55;9.68;;;;;;;12.14;100.00;100773.03;5044762;28;20056;-77
2022/06/08 05:17:32;;;;;;;20.10;10.70;;;;;;;12.24;100.00;100766.28;5040081;28;20041;-77
2022/06/08 05:19:58;;;;;;;19.02;10.50;;;;;;;12.28;100.00;100764.31;5043553;28;20479;-77
2022/06/08 05:22:23;;;;;;;21.60;9.98;;;;;;;12.33;100.00;100763.13;5051381;28;20047;-77
2022/06/08 05:24:49;;;;;;;17.55;10.05;;;;;;;12.40;100.00;100763.66;5047392;28;20053;-77
2022/06/08 05:27:15;;;;;;;19.55;10.13;;;;;;;12.49;100.00;100759.66;5046128;28;20043;-77
2022/06/08 05:29:40;;;;;;;18.58;10.27;;;;;;;12.57;100.00;100757.44;5048149;28;20729;-77
2022/06/08 05:32:06;;;;;;;19.27;10.40;;;;;;;12.66;100.00;100756.06;5044823;28;20037;-77
2022/06/08 05:34:32;;;;;;;19.90;10.57;;;;;;;12.76;100.00;100754.59;5045668;28;20029;-77
2022/06/08 05:36:58;;;;;;;18.85;9.82;;;;;;;12.84;100.00;100753.31;5047007;28;20068;-77
2022/06/08 05:39:23;;;;;;;17.70;10.48;;;;;;;12.94;100.00;100753.63;5044755;28;20036;-77
2022/06/08 05:41:49;;;;;;;21.20;10.25;;;;;;;12.99;100.00;100759.56;5047278;28;20045;-77
2022/06/08 05:44:15;;;;;;;19.40;10.77;;;;;;;13.04;100.00;100753.03;5043256;28;20029;-77
2022/06/08 05:46:40;;;;;;;20.02;10.60;;;;;;;13.13;100.00;100750.81;5044624;28;20090;-77
2022/06/08 05:49:06;;;;;;;19.58;9.80;;;;;;;13.26;100.00;100756.25;5041312;28;20048;-77
2022/06/08 05:51:32;;;;;;;17.73;10.20;;;;;;;13.42;100.00;100742.91;5040327;28;20484;-77
2022/06/08 05:53:57;;;;;;;16.85;9.65;;;;;;;13.49;100.00;100743.44;5046044;28;20051;-77
2022/06/08 05:56:22;;;;;;;17.13;9.95;;;;;;;13.51;100.00;100739.72;5046705;28;20039;-77
2022/06/08 05:58:48;;;;;;;17.55;9.65;;;;;;;13.54;100.00;100736.91;5046361;28;20055;-77
2022/06/08 06:01:14;;;;;;;19.95;9.85;;;;;;;13.56;100.00;100735.00;5045151;28;20051;-78
2022/06/08 06:03:39;;;;;;;17.55;9.48;;;;;;;13.60;100.00;100735.69;5023839;28;20064;-76
2022/06/08 06:06:05;;;;;;;14.57;9.10;;;;;;;13.62;100.00;100736.44;5041975;28;20028;-75
2022/06/08 06:08:30;;;;;;;19.88;9.55;;;;;;;13.67;100.00;100733.53;5040315;28;20466;-75
2022/06/08 06:10:56;;;;;;;17.17;9.30;;;;;;;13.69;100.00;100735.09;5045399;28;20505;-76
2022/06/08 06:13:21;;;;;;;16.95;9.40;;;;;;;13.77;100.00;100726.66;5042705;28;20044;-76
2022/06/08 06:15:47;;;;;;;17.42;8.88;;;;;;;13.93;100.00;100726.59;5043657;28;20029;-76
2022/06/08 06:18:13;;;;;;;18.58;10.02;;;;;;;14.01;100.00;100728.78;5042131;28;20032;-73
2022/06/08 06:20:38;;;;;;;16.65;8.85;;;;;;;14.07;100.00;100733.75;5045023;28;20040;-74
2022/06/08 06:23:04;;;;;;;16.85;9.55;;;;;;;14.13;100.00;100727.16;5044521;28;20032;-73
2022/06/08 06:25:30;;;;;;;15.80;8.65;;;;;;;14.16;100.00;100726.13;5041219;28;20508;-79
2022/06/08 06:27:55;;;;;;;21.02;9.00;;;;;;;14.21;100.00;100722.22;5042961;28;20532;-82
2022/06/08 06:30:21;;;;;;;14.73;8.10;;;;;;;14.27;100.00;100723.63;5032572;28;20068;-78
2022/06/08 06:32:47;;;;;;;16.95;9.13;;;;;;;14.32;100.00;100718.03;5042572;28;20853;-89
2022/06/08 06:35:31;;;;;;;16.77;8.65;;;;;;;14.40;100.00;100719.22;5025412;28;20047;-86
2022/06/08 06:37:56;;;;;;;13.25;8.25;;;;;;;14.47;100.00;100717.06;5025736;28;20176;-87
2022/06/08 06:40:22;;;;;;;14.48;8.55;;;;;;;14.56;100.00;100722.72;5042435;28;20395;-88
2022/06/08 06:42:47;;;;;;;14.43;7.93;;;;;;;14.65;100.00;100724.78;5041623;28;20036;-83
2022/06/08 06:45:14;;;;;;;14.15;8.02;;;;;;;14.69;100.00;100718.31;5017179;28;20033;-85
2022/06/08 06:47:39;;;;;;;16.42;8.35;;;;;;;14.75;100.00;100717.97;5040471;28;20032;-87
2022/06/08 06:50:09;;;;;;;14.43;7.57;;;;;;;14.78;100.00;100720.41;5042841;28;20037;-88
2022/06/08 06:52:35;;;;;;;16.52;8.05;;;;;;;14.83;100.00;100720.13;5041918;28;20036;-80
2022/06/08 06:55:00;;;;;;;13.90;7.50;;;;;;;14.87;100.00;100712.78;5027530;28;20060;-80
2022/06/08 06:57:26;;;;;;;12.15;6.95;;;;;;;14.92;100.00;100718.66;5040519;28;20082;-80
2022/06/08 06:59:51;;;;;;;11.82;7.72;;;;;;;14.99;100.00;100713.78;5042029;28;20036;-80
2022/06/08 07:02:19;;;;;;;12.10;7.35;;;;;;;15.03;100.00;100718.81;5038265;28;20594;-79
2022/06/08 07:04:45;;;;;;;11.38;7.03;;;;;;;15.05;100.00;100716.88;5031921;28;20041;-79
2022/06/08 07:07:11;;;;;;;13.43;7.15;;;;;;;15.11;100.00;100715.63;5044510;28;20032;-80
2022/06/08 07:09:37;;;;;;;10.02;6.78;;;;;;;15.19;100.00;100720.44;5031348;28;20721;-80
2022/06/08 07:12:04;;;;;;;10.30;6.55;;;;;;;15.28;100.00;100713.63;5021405;28;20025;-81
2022/06/08 07:14:30;;;;;;;11.88;7.25;;;;;;;15.36;100.00;100713.97;5015725;28;20045;-80
2022/06/08 07:16:56;;;;;;;11.80;7.03;;;;;;;15.45;100.00;100715.16;5045373;28;20035;-79
2022/06/08 07:19:22;;;;;;;12.65;7.22;;;;;;;15.51;100.00;100716.56;5040974;28;20032;-79
2022/06/08 07:21:47;;;;;;;12.27;7.00;;;;;;;15.58;100.00;100710.69;5026246;28;20037;-80
2022/06/08 07:24:23;;;;;;;11.20;7.25;;;;;;;15.64;100.00;100708.56;5021311;28;20085;-80
2022/06/08 07:26:49;;;;;;;12.05;7.07;;;;;;;15.64;100.00;100711.22;5056245;28;20775;-79
2022/06/08 07:29:15;;;;;;;12.02;6.95;;;;;;;15.65;100.00;100713.81;5034262;28;20188;-80
2022/06/08 07:31:41;;;;;;;11.30;6.30;;;;;;;15.66;100.00;100704.84;5019656;28;20037;-80
2022/06/08 07:34:07;;;;;;;9.57;6.43;;;;;;;15.71;100.00;100693.84;5031852;28;20021;-81
2022/06/08 07:36:33;;;;;;;11.48;7.07;;;;;;;15.76;100.00;100702.38;5005661;28;20094;-81
2022/06/08 07:38:58;;;;;;;11.85;6.53;;;;;;;15.78;100.00;100689.78;5021399;28;20170;-79
2022/06/08 07:41:24;;;;;;;11.73;6.50;;;;;;;15.79;100.00;100691.47;5053656;28;20280;-78
2022/06/08 07:43:50;;;;;;;10.20;6.10;;;;;;;15.81;100.00;100694.91;5057551;28;20144;-79
2022/06/08 07:46:17;;;;;;;9.82;5.53;;;;;;;15.85;100.00;100684.88;5040958;28;20040;-79
2022/06/08 07:51:27;;;;;;;10.63;5.97;;;;;;;16.09;100.00;100693.00;5041884;28;20045;-80
2022/06/08 07:53:52;;;;;;;10.48;6.22;;;;;;;16.26;100.00;100678.44;5029820;28;20048;-78
2022/06/08 07:56:19;;;;;;;12.43;6.13;;;;;;;16.48;100.00;100681.34;5039282;28;20090;-79
2022/06/08 07:58:44;;;;;;;9.55;6.03;;;;;;;16.68;100.00;100671.88;5018688;28;20039;-80
2022/06/08 08:01:10;;;;;;;8.48;5.85;;;;;;;16.84;100.00;100676.94;5051940;28;20052;-79
2022/06/08 08:03:35;;;;;;;8.40;5.10;;;;;;;16.94;100.00;100680.59;5034599;28;20051;-80
2022/06/08 08:06:01;;;;;;;6.82;4.93;;;;;;;17.05;100.00;100676.31;5038501;28;20033;-80
2022/06/08 08:08:27;;;;;;;6.88;5.05;;;;;;;17.13;100.00;100675.72;5018861;28;20489;-78
2022/06/08 08:10:53;;;;;;;7.85;5.30;;;;;;;17.16;100.00;100678.16;5037840;28;20033;-78
2022/06/08 08:13:18;;;;;;;6.93;4.85;;;;;;;17.21;100.00;100668.81;5035315;28;20028;-79
2022/06/08 08:15:44;;;;;;;8.40;5.13;;;;;;;17.21;100.00;100671.47;5053488;28;20029;-78
2022/06/08 08:18:10;;;;;;;7.60;4.88;;;;;;;17.24;100.00;100673.94;5039235;28;20471;-76
2022/06/08 08:20:36;;;;;;;8.50;5.28;;;;;;;17.22;100.00;100675.88;5039074;28;20097;-77
2022/06/08 08:23:02;;;;;;;8.75;5.35;;;;;;;17.20;100.00;100669.78;5041240;28;20037;-76
2022/06/08 08:25:28;;;;;;;8.70;4.75;;;;;;;17.20;100.00;100672.47;5040773;28;20029;-75
2022/06/08 08:27:55;;;;;;;7.25;4.70;;;;;;;17.18;100.00;100671.72;5042113;28;20470;-75
2022/06/08 08:30:23;;;;;;;5.95;4.20;;;;;;;17.21;100.00;100666.13;5041608;28;20116;-74
2022/06/08 08:32:48;;;;;;;5.88;3.92;;;;;;;17.24;100.00;100663.25;5039982;28;20036;-80
2022/06/08 08:35:16;;;;;;;6.93;3.72;;;;;;;17.27;100.00;100664.81;5045592;28;20561;-79
2022/06/08 08:37:43;;;;;;;5.22;3.63;;;;;;;17.35;100.00;100666.91;5052045;28;20028;-80
2022/06/08 08:40:38;;;;;;;6.82;4.10;;;;;;;17.45;100.00;100659.88;5036685;28;20544;-78
2022/06/08 08:43:04;;;;;;;5.90;3.22;;;;;;;17.62;100.00;100660.38;5044854;28;20037;-80
2022/06/08 08:45:39;;;;;;;6.47;3.42;;;;;;;17.77;100.00;100653.81;5036784;28;20136;-80
2022/06/08 08:48:08;;;;;;;5.15;3.38;;;;;;;17.99;100.00;100651.25;5023119;28;20029;-80
2022/06/08 08:50:38;;;;;;;5.55;3.80;;;;;;;18.23;100.00;100643.09;5032659;28;21614;-81
2022/06/08 08:53:03;;;;;;;8.07;3.70;;;;;;;18.40;100.00;100643.53;5045122;28;20561;-82
2022/06/08 08:55:47;;;;;;;5.18;3.40;;;;;;;18.61;100.00;100640.91;5041479;28;20029;-82
2022/06/08 08:58:14;;;;;;;5.38;3.40;;;;;;;18.76;100.00;100646.84;5045534;28;20048;-81
2022/06/08 09:00:49;;;;;;;5.65;3.78;;;;;;;18.97;100.00;100632.59;5035459;28;20060;-81
2022/06/08 09:03:29;;;;;;;4.50;3.17;;;;;;;19.12;100.00;100634.00;5045431;28;20046;-84
2022/06/08 09:05:58;;;;;;;4.45;3.28;;;;;;;19.32;100.00;100634.13;5021192;28;20580;-81
2022/06/08 09:08:24;;;;;;;4.55;3.50;;;;;;;19.39;100.00;100635.31;5023328;28;20056;-82
2022/06/08 09:10:51;;;;;;;4.75;2.72;;;;;;;19.41;100.00;100629.81;5035842;28;20468;-81
2022/06/08 09:13:43;;;;;;;4.55;3.47;;;;;;;19.35;94.57;100633.84;5036867;28;20590;-81
2022/06/08 09:16:09;;;;;;;4.75;2.75;;;;;;;19.32;99.61;100623.41;5039420;28;20052;-82
2022/06/08 09:18:41;;;;;;;4.13;2.85;;;;;;;19.40;100.00;100620.06;5045829;28;20498;-82
2022/06/08 09:21:26;;;;;;;;;;;;;;;19.51;96.19;100621.81;5039796;28;20094;-82
2022/06/08 09:23:54;;;;;;;4.45;3.33;;;;;;;19.59;93.33;100613.94;5034300;28;19955;-83
2022/06/08 09:26:23;;;;;;;3.97;3.17;;;;;;;19.68;97.71;100620.34;5015510;28;20028;-81
2022/06/08 09:28:57;;;;;;;4.85;3.08;;;;;;;19.72;97.59;100612.84;5023352;28;20024;-82
2022/06/08 09:31:29;;;;;;;5.00;3.30;;;;;;;19.75;98.03;100620.63;5031358;28;20128;-82
2022/06/08 09:34:03;;;;;;;3.17;2.67;;;;;;;19.76;96.80;100612.44;5009111;28;20456;-81
2022/06/08 09:36:29;;;;;;;3.90;2.75;;;;;;;19.88;98.09;100610.50;5044726;28;20060;-82
2022/06/08 09:38:55;;;;;;;3.75;2.85;;;;;;;19.94;97.58;100612.63;5046596;28;20120;-83
2022/06/08 09:41:22;;;;;;;3.55;2.40;;;;;;;19.96;96.92;100604.47;5006086;28;21426;-84
2022/06/08 09:43:58;;;;;;;4.65;2.90;;;;;;;19.87;93.16;100595.38;5047987;28;20098;-80
2022/06/08 09:52:46;;;;;;;3.13;2.10;;;;;;;19.64;95.39;100595.59;5043410;28;20048;-81
2022/06/08 09:55:31;;;;;;;5.15;2.47;;;;;;;19.54;94.68;100595.53;5044816;28;20047;-83
2022/06/08 09:58:15;;;;;;;3.13;2.30;;;;;;;19.43;93.23;100587.56;5023457;28;20029;-84
2022/06/08 10:00:44;;;;;;;2.53;1.83;;;;;;;19.28;91.04;100589.75;5024659;28;20056;-83
2022/06/08 10:03:23;;;;;;;2.78;2.08;;;;;;;19.29;93.00;100585.25;5045360;28;20049;-84
2022/06/08 10:06:16;;;;;;;3.30;1.98;;;;;;;19.27;92.67;100588.91;5042449;28;20446;-84
2022/06/08 10:08:55;;;;;;;2.47;2.10;;;;;;;19.24;93.31;100588.34;5043078;28;20036;-81
2022/06/08 10:11:48;;;;;;;3.80;2.45;;;;;;;19.12;90.88;100591.09;5028842;28;20566;-83
2022/06/08 10:14:21;;;;;;;3.17;2.38;;;;;;;19.04;92.43;100587.34;5045532;28;20885;-83
2022/06/08 10:16:54;;;;;;;3.38;2.60;;;;;;;18.90;91.70;100589.34;5023305;28;20488;-83
2022/06/08 10:19:29;;;;;;;4.47;2.40;;;;;;;18.76;94.63;100595.03;5044694;28;20397;-84
2022/06/08 10:21:56;;;;;;;5.43;3.00;;;;;;;18.55;96.70;100593.19;5045053;28;20036;-84
2022/06/08 10:24:26;;;;;;;5.40;3.55;;;;;;;18.27;98.35;100593.66;5044794;28;20037;-85
2022/06/08 10:27:11;;;;;;;4.93;3.53;;;;;;;18.05;100.00;100595.38;5008257;28;20028;-84
2022/06/08 10:29:42;;;;;;;5.03;3.78;;;;;;;17.87;100.00;100586.97;5045337;28;20036;-83
2022/06/08 10:32:36;;;;;;;6.53;4.03;;;;;;;17.69;100.00;100592.00;5044176;28;20119;-86
2022/06/08 10:35:22;;;;;;;5.28;3.85;;;;;;;17.55;100.00;100584.22;5033813;28;20052;-86
2022/06/08 10:37:48;;;;;;;6.45;4.03;;;;;;;17.48;100.00;100571.31;5031893;28;20515;-84
2022/06/08 10:40:20;;;;;;;5.68;4.00;;;;;;;17.44;100.00;100561.81;5039919;28;20043;-85
2022/06/08 10:42:47;;;;;;;6.32;4.18;;;;;;;17.44;100.00;100569.84;5020650;28;20039;-83
2022/06/08 10:45:27;;;;;;;7.20;4.22;;;;;;;17.45;100.00;100562.69;5043551;28;20550;-82
2022/06/08 10:47:53;;;;;;;5.88;4.15;;;;;;;17.49;100.00;100565.00;5038692;28;20044;-81
2022/06/08 10:50:39;;;;;;;5.88;4.47;;;;;;;17.55;100.00;100568.16;5043839;28;20021;-79
2022/06/08 10:56:22;;;;;;;7.40;4.80;;;;;;;17.64;100.00;100565.59;5035216;28;20072;-78
2022/06/08 10:58:55;;;;;;;7.57;5.00;;;;;;;17.71;100.00;100554.41;5044692;28;20776;-78
2022/06/08 11:01:42;;;;;;;6.13;4.95;;;;;;;17.78;100.00;100559.13;5044596;28;20630;-77
2022/06/08 11:04:30;;;;;;;6.18;4.82;;;;;;;17.88;100.00;100558.41;5044162;28;20037;-76
2022/06/08 11:07:19;;;;;;;5.97;4.82;;;;;;;17.98;100.00;100553.97;5032967;28;20111;-77
2022/06/08 11:09:50;;;;;;;6.28;4.45;;;;;;;18.16;100.00;100557.03;5050663;28;20036;-77
2022/06/08 11:12:27;;;;;;;7.03;4.33;;;;;;;18.26;100.00;100556.25;5064164;28;20032;-77
2022/06/08 11:14:57;;;;;;;6.82;4.75;;;;;;;18.35;100.00;100549.28;5031232;28;20784;-76
2022/06/08 11:17:29;;;;;;;6.60;4.00;;;;;;;18.42;100.00;100551.31;5041759;28;20061;-78
2022/06/08 11:20:20;;;;;;;6.25;4.13;;;;;;;18.52;100.00;100546.03;5044192;28;20033;-77
2022/06/08 11:22:51;;;;;;;6.57;4.22;;;;;;;18.58;100.00;100547.38;5033088;28;20147;-77
2022/06/08 11:25:27;;;;;;;5.43;3.97;;;;;;;18.66;100.00;100542.19;5043937;28;20123;-78
2022/06/08 11:28:30;;;;;;;6.15;4.40;;;;;;;18.76;100.00;100541.41;5026447;28;20044;-77
2022/06/08 11:30:59;;;;;;;5.55;3.78;;;;;;;18.80;100.00;100537.50;5043404;28;20045;-78
2022/06/08 11:33:50;;;;;;;7.10;4.65;;;;;;;18.76;100.00;100536.91;5043074;28;20041;-78
2022/06/08 11:36:16;;;;;;;7.28;4.60;;;;;;;18.74;100.00;100533.47;5044065;28;20033;-79
2022/06/08 11:38:54;;;;;;;6.25;4.72;;;;;;;18.61;100.00;100532.84;5044153;28;20566;-79
2022/06/08 11:41:19;;;;;;;7.93;4.82;;;;;;;18.37;100.00;100537.47;5058643;28;20045;-79
2022/06/08 11:43:47;;;;;;;5.97;4.78;;;;;;;18.16;100.00;100540.09;5044059;28;20044;-77